TimeEST,TemperatureF,Dew PointF,Humidity,Sea Level PressureIn,VisibilityMPH,Wind Direction,Wind SpeedMPH,Gust SpeedMPH,PrecipitationIn,Events,Conditions,WindDirDegrees,DateUTC
12:53 AM,15.1,8.1,74,30.13,10.0,Variable,3.5,-,N/A,,Clear,0,2013-02-17 05:53:00
1:53 AM,14.0,8.1,77,30.13,10.0,Variable,3.5,-,N/A,,Clear,0,2013-02-17 06:53:00
2:53 AM,14.0,8.1,77,30.14,10.0,WNW,4.6,-,N/A,,Clear,300,2013-02-17 07:53:00
3:53 AM,14.0,9.0,80,30.14,10.0,Calm,Calm,-,N/A,,Clear,0,2013-02-17 08:53:00
4:53 AM,12.9,9.0,84,30.15,10.0,Calm,Calm,-,N/A,,Clear,0,2013-02-17 09:53:00
5:53 AM,12.9,8.1,81,30.17,10.0,Calm,Calm,-,N/A,,Clear,0,2013-02-17 10:53:00
6:53 AM,10.9,7.0,84,30.19,10.0,Calm,Calm,-,N/A,,Clear,0,2013-02-17 11:53:00
7:53 AM,12.0,8.1,84,30.21,10.0,Calm,Calm,-,N/A,,Clear,0,2013-02-17 12:53:00
8:53 AM,17.1,12.0,81,30.23,10.0,Calm,Calm,-,N/A,,Clear,0,2013-02-17 13:53:00
9:53 AM,19.9,12.0,71,30.24,10.0,NW,5.8,-,N/A,,Partly Cloudy,310,2013-02-17 14:53:00
10:53 AM,21.9,9.0,58,30.24,10.0,Variable,5.8,-,N/A,,Clear,0,2013-02-17 15:53:00
11:53 AM,26.1,7.0,44,30.25,10.0,Variable,6.9,-,N/A,,Scattered Clouds,0,2013-02-17 16:53:00
12:53 PM,25.0,5.0,43,30.24,10.0,NNW,12.7,-,N/A,,Overcast,340,2013-02-17 17:53:00
1:53 PM,25.0,3.9,41,30.23,10.0,Variable,4.6,-,N/A,,Scattered Clouds,0,2013-02-17 18:53:00
2:53 PM,26.1,5.0,41,30.22,10.0,WNW,8.1,-,N/A,,Clear,300,2013-02-17 19:53:00
3:53 PM,27.0,7.0,43,30.22,10.0,WNW,8.1,-,N/A,,Scattered Clouds,290,2013-02-17 20:53:00
4:53 PM,27.0,7.0,43,30.22,10.0,West,6.9,-,N/A,,Mostly Cloudy,260,2013-02-17 21:53:00
5:53 PM,26.1,6.1,43,30.22,10.0,Calm,Calm,-,N/A,,Partly Cloudy,0,2013-02-17 22:53:00
6:53 PM,21.9,9.0,58,30.23,10.0,Calm,Calm,-,N/A,,Clear,0,2013-02-17 23:53:00
7:53 PM,19.9,9.0,62,30.23,10.0,Calm,Calm,-,N/A,,Clear,0,2013-02-18 00:53:00
8:53 PM,21.9,10.0,60,30.22,10.0,Calm,Calm,-,N/A,,Clear,0,2013-02-18 01:53:00
9:53 PM,21.9,10.9,63,30.22,10.0,SE,3.5,-,N/A,,Clear,140,2013-02-18 02:53:00
10:53 PM,21.9,12.0,66,30.22,10.0,SSE,4.6,-,N/A,,Clear,160,2013-02-18 03:53:00